sensor_id;sensor_type;location;lat;lon;timestamp;P1;durP1;ratioP1;P2;durP2;ratioP2
13263;SDS011;6700;51.988;7.646;2023-11-21T06:43:49;38.90;;;20.23;;
13263;SDS011;6700;51.988;7.646;2023-11-21T06:46:17;27.53;;;16.07;;
13263;SDS011;6700;51.988;7.646;2023-11-21T06:48:45;29.77;;;16.13;;
13263;SDS011;6700;51.988;7.646;2023-11-21T06:51:12;32.33;;;16.17;;
13263;SDS011;6700;51.988;7.646;2023-11-21T06:53:39;28.43;;;17.50;;
13263;SDS011;6700;51.988;7.646;2023-11-21T06:56:16;36.30;;;16.23;;
13263;SDS011;6700;51.988;7.646;2023-11-21T06:58:44;28.30;;;15.83;;
13263;SDS011;6700;51.988;7.646;2023-11-21T07:01:12;38.37;;;18.43;;
13263;SDS011;6700;51.988;7.646;2023-11-21T07:03:40;34.00;;;16.70;;
13263;SDS011;6700;51.988;7.646;2023-11-21T07:06:07;32.30;;;15.73;;
13263;SDS011;6700;51.988;7.646;2023-11-21T07:08:35;32.07;;;17.07;;
13263;SDS011;6700;51.988;7.646;2023-11-21T07:11:03;34.47;;;17.20;;
13263;SDS011;6700;51.988;7.646;2023-11-21T07:13:30;37.70;;;15.97;;
13263;SDS011;6700;51.988;7.646;2023-11-21T07:15:58;34.83;;;16.47;;
13263;SDS011;6700;51.988;7.646;2023-11-21T07:18:25;39.13;;;17.60;;
13263;SDS011;6700;51.988;7.646;2023-11-21T07:20:52;32.60;;;15.93;;
13263;SDS011;6700;51.988;7.646;2023-11-21T07:23:20;31.17;;;16.07;;
13263;SDS011;6700;51.988;7.646;2023-11-21T07:25:49;37.77;;;15.87;;
13263;SDS011;6700;51.988;7.646;2023-11-21T07:28:18;28.73;;;16.23;;
13263;SDS011;6700;51.988;7.646;2023-11-21T07:30:46;29.03;;;15.83;;
13263;SDS011;6700;51.988;7.646;2023-11-21T07:33:14;28.50;;;16.10;;
13263;SDS011;6700;51.988;7.646;2023-11-21T07:35:41;36.07;;;15.07;;
13263;SDS011;6700;51.988;7.646;2023-11-21T07:38:08;31.70;;;15.90;;
13263;SDS011;6700;51.988;7.646;2023-11-21T07:40:35;33.83;;;17.47;;
13263;SDS011;6700;51.988;7.646;2023-11-21T07:43:02;32.27;;;16.63;;
13263;SDS011;6700;51.988;7.646;2023-11-21T07:45:29;28.83;;;16.80;;
13263;SDS011;6700;51.988;7.646;2023-11-21T07:47:57;36.30;;;16.20;;
13263;SDS011;6700;51.988;7.646;2023-11-21T07:50:24;30.13;;;14.80;;
13263;SDS011;6700;51.988;7.646;2023-11-21T07:52:52;34.13;;;16.97;;
13263;SDS011;6700;51.988;7.646;2023-11-21T07:55:20;37.73;;;17.57;;
13263;SDS011;6700;51.988;7.646;2023-11-21T07:57:48;28.57;;;14.80;;
13263;SDS011;6700;51.988;7.646;2023-11-21T08:00:15;39.17;;;17.60;;
13263;SDS011;6700;51.988;7.646;2023-11-21T08:02:42;36.47;;;17.53;;
13263;SDS011;6700;51.988;7.646;2023-11-21T08:05:12;40.03;;;19.67;;
13263;SDS011;6700;51.988;7.646;2023-11-21T08:07:50;39.40;;;18.47;;
13263;SDS011;6700;51.988;7.646;2023-11-21T08:10:17;45.47;;;17.20;;
13263;SDS011;6700;51.988;7.646;2023-11-21T08:12:44;41.87;;;18.07;;
13263;SDS011;6700;51.988;7.646;2023-11-21T08:15:12;44.47;;;18.67;;
13263;SDS011;6700;51.988;7.646;2023-11-21T08:17:39;44.87;;;18.03;;
13263;SDS011;6700;51.988;7.646;2023-11-21T08:20:06;38.63;;;18.47;;
13263;SDS011;6700;51.988;7.646;2023-11-21T08:22:35;41.73;;;19.13;;
13263;SDS011;6700;51.988;7.646;2023-11-21T08:25:02;43.27;;;19.20;;
13263;SDS011;6700;51.988;7.646;2023-11-21T08:27:39;41.23;;;18.17;;
13263;SDS011;6700;51.988;7.646;2023-11-21T08:30:07;43.37;;;19.87;;
13263;SDS011;6700;51.988;7.646;2023-11-21T08:32:34;37.07;;;18.07;;
13263;SDS011;6700;51.988;7.646;2023-11-21T08:35:01;36.50;;;18.90;;
13263;SDS011;6700;51.988;7.646;2023-11-21T08:37:29;35.87;;;17.50;;
13263;SDS011;6700;51.988;7.646;2023-11-21T08:39:57;41.27;;;19.90;;
13263;SDS011;6700;51.988;7.646;2023-11-21T08:42:28;46.83;;;18.50;;
13263;SDS011;6700;51.988;7.646;2023-11-21T08:44:56;40.83;;;19.10;;
13263;SDS011;6700;51.988;7.646;2023-11-21T08:47:26;42.77;;;18.53;;
13263;SDS011;6700;51.988;7.646;2023-11-21T08:49:53;53.10;;;19.30;;
13263;SDS011;6700;51.988;7.646;2023-11-21T08:52:21;37.70;;;18.97;;
13263;SDS011;6700;51.988;7.646;2023-11-21T08:54:49;46.47;;;20.23;;
13263;SDS011;6700;51.988;7.646;2023-11-21T08:57:22;38.83;;;18.33;;
13263;SDS011;6700;51.988;7.646;2023-11-21T08:59:50;41.10;;;16.73;;
13263;SDS011;6700;51.988;7.646;2023-11-21T09:02:22;35.90;;;17.60;;
13263;SDS011;6700;51.988;7.646;2023-11-21T09:04:49;37.13;;;16.97;;
13263;SDS011;6700;51.988;7.646;2023-11-21T09:07:19;37.73;;;16.70;;
13263;SDS011;6700;51.988;7.646;2023-11-21T09:09:47;31.77;;;16.77;;
13263;SDS011;6700;51.988;7.646;2023-11-21T09:12:16;29.63;;;16.33;;
13263;SDS011;6700;51.988;7.646;2023-11-21T09:14:45;29.47;;;15.60;;
13263;SDS011;6700;51.988;7.646;2023-11-21T09:17:12;25.70;;;15.03;;
13263;SDS011;6700;51.988;7.646;2023-11-21T09:19:40;25.90;;;13.03;;
13263;SDS011;6700;51.988;7.646;2023-11-21T09:22:07;25.50;;;13.47;;
13263;SDS011;6700;51.988;7.646;2023-11-21T09:24:35;24.20;;;13.27;;
13263;SDS011;6700;51.988;7.646;2023-11-21T09:27:05;23.83;;;13.27;;
13263;SDS011;6700;51.988;7.646;2023-11-21T09:29:32;24.93;;;12.50;;
13263;SDS011;6700;51.988;7.646;2023-11-21T09:31:59;21.07;;;11.93;;
13263;SDS011;6700;51.988;7.646;2023-11-21T09:34:27;20.47;;;12.67;;
13263;SDS011;6700;51.988;7.646;2023-11-21T09:36:54;24.47;;;12.57;;
13263;SDS011;6700;51.988;7.646;2023-11-21T09:39:22;23.10;;;12.63;;
13263;SDS011;6700;51.988;7.646;2023-11-21T09:44:20;18.77;;;11.70;;
13263;SDS011;6700;51.988;7.646;2023-11-21T09:46:49;17.63;;;11.17;;
13263;SDS011;6700;51.988;7.646;2023-11-21T09:49:21;18.90;;;10.47;;
13263;SDS011;6700;51.988;7.646;2023-11-21T09:51:54;18.83;;;10.57;;
13263;SDS011;6700;51.988;7.646;2023-11-21T09:54:25;17.57;;;11.23;;
13263;SDS011;6700;51.988;7.646;2023-11-21T09:56:54;16.77;;;9.73;;
13263;SDS011;6700;51.988;7.646;2023-11-21T09:59:21;17.97;;;11.60;;
13263;SDS011;6700;51.988;7.646;2023-11-21T10:01:49;18.27;;;10.43;;
13263;SDS011;6700;51.988;7.646;2023-11-21T10:04:17;19.47;;;11.13;;
13263;SDS011;6700;51.988;7.646;2023-11-21T10:06:46;19.50;;;11.33;;
13263;SDS011;6700;51.988;7.646;2023-11-21T10:09:15;22.27;;;11.70;;
13263;SDS011;6700;51.988;7.646;2023-11-21T10:11:42;19.33;;;12.17;;
13263;SDS011;6700;51.988;7.646;2023-11-21T10:14:10;20.33;;;13.53;;
13263;SDS011;6700;51.988;7.646;2023-11-21T10:16:41;18.03;;;11.33;;
13263;SDS011;6700;51.988;7.646;2023-11-21T10:19:10;20.17;;;11.17;;
13263;SDS011;6700;51.988;7.646;2023-11-21T10:21:42;21.20;;;11.20;;
13263;SDS011;6700;51.988;7.646;2023-11-21T10:24:09;18.77;;;12.43;;
13263;SDS011;6700;51.988;7.646;2023-11-21T10:26:38;19.77;;;10.90;;
13263;SDS011;6700;51.988;7.646;2023-11-21T10:29:18;22.07;;;12.97;;
13263;SDS011;6700;51.988;7.646;2023-11-21T10:31:50;19.57;;;12.50;;
13263;SDS011;6700;51.988;7.646;2023-11-21T10:34:19;21.30;;;10.77;;
13263;SDS011;6700;51.988;7.646;2023-11-21T10:36:46;20.43;;;12.07;;
13263;SDS011;6700;51.988;7.646;2023-11-21T10:39:14;18.73;;;11.80;;
13263;SDS011;6700;51.988;7.646;2023-11-21T10:41:45;18.80;;;11.13;;
13263;SDS011;6700;51.988;7.646;2023-11-21T10:44:19;16.90;;;11.53;;
13263;SDS011;6700;51.988;7.646;2023-11-21T10:46:48;18.77;;;12.17;;
13263;SDS011;6700;51.988;7.646;2023-11-21T10:49:22;18.77;;;11.47;;
13263;SDS011;6700;51.988;7.646;2023-11-21T10:51:51;16.27;;;10.90;;
13263;SDS011;6700;51.988;7.646;2023-11-21T10:54:19;17.93;;;9.80;;
13263;SDS011;6700;51.988;7.646;2023-11-21T10:56:50;20.13;;;11.43;;
13263;SDS011;6700;51.988;7.646;2023-11-21T10:59:19;17.60;;;10.93;;
13263;SDS011;6700;51.988;7.646;2023-11-21T11:01:51;14.93;;;10.73;;
13263;SDS011;6700;51.988;7.646;2023-11-21T11:04:19;18.57;;;9.97;;
13263;SDS011;6700;51.988;7.646;2023-11-21T11:06:50;16.10;;;10.03;;
13263;SDS011;6700;51.988;7.646;2023-11-21T11:09:18;20.50;;;12.07;;
13263;SDS011;6700;51.988;7.646;2023-11-21T11:11:45;16.20;;;10.10;;
13263;SDS011;6700;51.988;7.646;2023-11-21T11:14:13;17.83;;;10.07;;
13263;SDS011;6700;51.988;7.646;2023-11-21T11:16:41;15.43;;;9.53;;
13263;SDS011;6700;51.988;7.646;2023-11-21T11:19:11;16.80;;;9.53;;
13263;SDS011;6700;51.988;7.646;2023-11-21T11:34:29;15.90;;;9.83;;
13263;SDS011;6700;51.988;7.646;2023-11-21T11:37:07;16.40;;;10.20;;
13263;SDS011;6700;51.988;7.646;2023-11-21T11:42:02;13.80;;;9.97;;
13263;SDS011;6700;51.988;7.646;2023-11-21T11:44:53;16.13;;;9.93;;
13263;SDS011;6700;51.988;7.646;2023-11-21T11:47:25;15.60;;;10.03;;
13263;SDS011;6700;51.988;7.646;2023-11-21T11:52:32;18.67;;;10.17;;
13263;SDS011;6700;51.988;7.646;2023-11-21T11:55:00;12.47;;;9.50;;
13263;SDS011;6700;51.988;7.646;2023-11-21T11:57:31;131.33;;;78.27;;
13263;SDS011;6700;51.988;7.646;2023-11-21T12:00:15;32.93;;;21.87;;
13263;SDS011;6700;51.988;7.646;2023-11-21T12:02:49;31.50;;;19.03;;
13263;SDS011;6700;51.988;7.646;2023-11-21T12:05:18;11.10;;;8.23;;
13263;SDS011;6700;51.988;7.646;2023-11-21T12:07:46;9.73;;;7.87;;
13263;SDS011;6700;51.988;7.646;2023-11-21T12:10:19;7.63;;;6.73;;
13263;SDS011;6700;51.988;7.646;2023-11-21T12:12:48;9.00;;;6.77;;
13263;SDS011;6700;51.988;7.646;2023-11-21T12:15:15;9.70;;;6.20;;
13263;SDS011;6700;51.988;7.646;2023-11-21T12:17:43;8.13;;;6.43;;
13263;SDS011;6700;51.988;7.646;2023-11-21T12:20:11;7.23;;;6.50;;
13263;SDS011;6700;51.988;7.646;2023-11-21T12:22:44;7.53;;;6.47;;
13263;SDS011;6700;51.988;7.646;2023-11-21T12:25:14;7.57;;;5.50;;
13263;SDS011;6700;51.988;7.646;2023-11-21T12:27:42;7.03;;;5.77;;
13263;SDS011;6700;51.988;7.646;2023-11-21T12:30:11;6.47;;;5.87;;
13263;SDS011;6700;51.988;7.646;2023-11-21T12:32:43;5.97;;;5.37;;
13263;SDS011;6700;51.988;7.646;2023-11-21T12:35:12;6.87;;;5.47;;
13263;SDS011;6700;51.988;7.646;2023-11-21T12:37:40;6.50;;;5.80;;
13263;SDS011;6700;51.988;7.646;2023-11-21T12:40:09;7.07;;;5.83;;
13263;SDS011;6700;51.988;7.646;2023-11-21T12:42:42;6.77;;;5.77;;
13263;SDS011;6700;51.988;7.646;2023-11-21T12:45:25;7.50;;;6.47;;
13263;SDS011;6700;51.988;7.646;2023-11-21T12:47:57;9.47;;;6.20;;
13263;SDS011;6700;51.988;7.646;2023-11-21T12:50:27;9.30;;;6.03;;
13263;SDS011;6700;51.988;7.646;2023-11-21T12:52:59;8.57;;;7.67;;
13263;SDS011;6700;51.988;7.646;2023-11-21T12:55:29;8.57;;;5.93;;
13263;SDS011;6700;51.988;7.646;2023-11-21T12:57:56;9.00;;;5.80;;
13263;SDS011;6700;51.988;7.646;2023-11-21T13:00:34;7.63;;;5.77;;
13263;SDS011;6700;51.988;7.646;2023-11-21T13:03:04;8.47;;;6.30;;
13263;SDS011;6700;51.988;7.646;2023-11-21T13:05:33;9.30;;;6.73;;
13263;SDS011;6700;51.988;7.646;2023-11-21T13:08:01;9.80;;;6.73;;
13263;SDS011;6700;51.988;7.646;2023-11-21T13:10:30;8.17;;;7.37;;
13263;SDS011;6700;51.988;7.646;2023-11-21T13:12:58;7.93;;;6.00;;
13263;SDS011;6700;51.988;7.646;2023-11-21T13:15:26;9.53;;;8.10;;
13263;SDS011;6700;51.988;7.646;2023-11-21T13:17:54;8.00;;;7.00;;
13263;SDS011;6700;51.988;7.646;2023-11-21T13:20:24;11.40;;;7.70;;
13263;SDS011;6700;51.988;7.646;2023-11-21T13:22:52;10.60;;;7.57;;
13263;SDS011;6700;51.988;7.646;2023-11-21T13:25:25;10.63;;;8.13;;
13263;SDS011;6700;51.988;7.646;2023-11-21T13:27:57;12.67;;;8.30;;
13263;SDS011;6700;51.988;7.646;2023-11-21T13:30:24;11.23;;;9.10;;
13263;SDS011;6700;51.988;7.646;2023-11-21T13:33:01;9.73;;;8.70;;
13263;SDS011;6700;51.988;7.646;2023-11-21T13:35:31;10.57;;;8.57;;
13263;SDS011;6700;51.988;7.646;2023-11-21T13:38:05;11.40;;;8.67;;
13263;SDS011;6700;51.988;7.646;2023-11-21T13:40:33;11.00;;;9.47;;
13263;SDS011;6700;51.988;7.646;2023-11-21T13:43:11;13.53;;;9.43;;
13263;SDS011;6700;51.988;7.646;2023-11-21T13:45:39;14.73;;;10.20;;
13263;SDS011;6700;51.988;7.646;2023-11-21T13:48:10;17.20;;;11.20;;
13263;SDS011;6700;51.988;7.646;2023-11-21T13:50:40;11.87;;;10.13;;
13263;SDS011;6700;51.988;7.646;2023-11-21T13:53:14;13.17;;;11.03;;
13263;SDS011;6700;51.988;7.646;2023-11-21T13:55:49;10.63;;;9.47;;
13263;SDS011;6700;51.988;7.646;2023-11-21T13:58:17;11.27;;;9.23;;
13263;SDS011;6700;51.988;7.646;2023-11-21T14:00:49;11.43;;;9.10;;
13263;SDS011;6700;51.988;7.646;2023-11-21T14:03:23;12.57;;;8.60;;
13263;SDS011;6700;51.988;7.646;2023-11-21T14:05:59;11.80;;;8.80;;
13263;SDS011;6700;51.988;7.646;2023-11-21T14:08:29;11.90;;;9.27;;
13263;SDS011;6700;51.988;7.646;2023-11-21T14:10:57;9.40;;;8.37;;
13263;SDS011;6700;51.988;7.646;2023-11-21T14:13:26;9.87;;;8.30;;
13263;SDS011;6700;51.988;7.646;2023-11-21T14:15:53;7.87;;;7.00;;
13263;SDS011;6700;51.988;7.646;2023-11-21T14:18:25;9.00;;;7.93;;
13263;SDS011;6700;51.988;7.646;2023-11-21T14:20:57;9.00;;;6.97;;
13263;SDS011;6700;51.988;7.646;2023-11-21T14:23:24;7.63;;;6.83;;
13263;SDS011;6700;51.988;7.646;2023-11-21T14:25:52;7.90;;;7.10;;
13263;SDS011;6700;51.988;7.646;2023-11-21T14:28:19;9.83;;;6.53;;
13263;SDS011;6700;51.988;7.646;2023-11-21T14:30:46;8.57;;;7.07;;
13263;SDS011;6700;51.988;7.646;2023-11-21T14:33:13;8.17;;;6.83;;
13263;SDS011;6700;51.988;7.646;2023-11-21T14:35:42;8.60;;;7.37;;
13263;SDS011;6700;51.988;7.646;2023-11-21T14:38:11;8.23;;;6.47;;
13263;SDS011;6700;51.988;7.646;2023-11-21T14:40:40;9.50;;;7.53;;
13263;SDS011;6700;51.988;7.646;2023-11-21T14:43:07;9.87;;;7.13;;
13263;SDS011;6700;51.988;7.646;2023-11-21T14:45:34;9.43;;;7.97;;
13263;SDS011;6700;51.988;7.646;2023-11-21T14:48:01;9.20;;;7.30;;
13263;SDS011;6700;51.988;7.646;2023-11-21T14:50:42;7.60;;;6.03;;
13263;SDS011;6700;51.988;7.646;2023-11-21T14:53:45;8.80;;;6.77;;
13263;SDS011;6700;51.988;7.646;2023-11-21T14:56:21;7.30;;;6.43;;
13263;SDS011;6700;51.988;7.646;2023-11-21T14:58:59;7.87;;;6.03;;
13263;SDS011;6700;51.988;7.646;2023-11-21T15:01:34;7.57;;;6.40;;
13263;SDS011;6700;51.988;7.646;2023-11-21T15:04:19;5.70;;;5.10;;
13263;SDS011;6700;51.988;7.646;2023-11-21T15:07:03;6.87;;;5.93;;
13263;SDS011;6700;51.988;7.646;2023-11-21T15:09:30;6.97;;;5.80;;
13263;SDS011;6700;51.988;7.646;2023-11-21T15:11:58;5.53;;;4.83;;
13263;SDS011;6700;51.988;7.646;2023-11-21T15:14:37;5.77;;;5.17;;
13263;SDS011;6700;51.988;7.646;2023-11-21T15:17:04;8.40;;;6.43;;
13263;SDS011;6700;51.988;7.646;2023-11-21T15:19:32;7.43;;;6.03;;
13263;SDS011;6700;51.988;7.646;2023-11-21T15:22:01;6.83;;;5.60;;
13263;SDS011;6700;51.988;7.646;2023-11-21T15:24:28;9.33;;;6.53;;
13263;SDS011;6700;51.988;7.646;2023-11-21T15:26:55;11.00;;;5.80;;
13263;SDS011;6700;51.988;7.646;2023-11-21T15:29:22;8.87;;;6.47;;
13263;SDS011;6700;51.988;7.646;2023-11-21T15:31:51;8.43;;;6.27;;
13263;SDS011;6700;51.988;7.646;2023-11-21T15:34:22;6.80;;;6.10;;
13263;SDS011;6700;51.988;7.646;2023-11-21T15:36:49;6.20;;;5.60;;
13263;SDS011;6700;51.988;7.646;2023-11-21T15:39:19;6.83;;;5.67;;
13263;SDS011;6700;51.988;7.646;2023-11-21T15:41:47;7.17;;;5.90;;
13263;SDS011;6700;51.988;7.646;2023-11-21T15:44:15;8.77;;;6.03;;
13263;SDS011;6700;51.988;7.646;2023-11-21T15:46:42;6.60;;;5.93;;
13263;SDS011;6700;51.988;7.646;2023-11-21T15:49:10;8.23;;;5.50;;
13263;SDS011;6700;51.988;7.646;2023-11-21T15:51:43;6.10;;;5.47;;
13263;SDS011;6700;51.988;7.646;2023-11-21T15:54:19;10.83;;;6.40;;
13263;SDS011;6700;51.988;7.646;2023-11-21T15:56:47;8.90;;;7.17;;
13263;SDS011;6700;51.988;7.646;2023-11-21T15:59:15;6.80;;;6.07;;
13263;SDS011;6700;51.988;7.646;2023-11-21T16:01:45;8.53;;;6.47;;
13263;SDS011;6700;51.988;7.646;2023-11-21T16:04:14;9.67;;;7.07;;
13263;SDS011;6700;51.988;7.646;2023-11-21T16:06:43;11.20;;;6.80;;
13263;SDS011;6700;51.988;7.646;2023-11-21T16:09:11;9.23;;;6.93;;
13263;SDS011;6700;51.988;7.646;2023-11-21T16:11:51;8.63;;;6.30;;
13263;SDS011;6700;51.988;7.646;2023-11-21T16:14:23;9.40;;;6.70;;
13263;SDS011;6700;51.988;7.646;2023-11-21T16:16:53;7.70;;;6.77;;
13263;SDS011;6700;51.988;7.646;2023-11-21T16:19:21;9.10;;;7.20;;
13263;SDS011;6700;51.988;7.646;2023-11-21T16:21:48;7.90;;;6.90;;
13263;SDS011;6700;51.988;7.646;2023-11-21T16:24:15;12.47;;;8.87;;
13263;SDS011;6700;51.988;7.646;2023-11-21T16:26:43;17.23;;;10.23;;
13263;SDS011;6700;51.988;7.646;2023-11-21T16:29:10;20.57;;;13.43;;
13263;SDS011;6700;51.988;7.646;2023-11-21T16:31:38;20.80;;;12.80;;
13263;SDS011;6700;51.988;7.646;2023-11-21T16:34:15;12.83;;;9.60;;
13263;SDS011;6700;51.988;7.646;2023-11-21T16:36:46;23.40;;;13.43;;
13263;SDS011;6700;51.988;7.646;2023-11-21T16:39:15;18.17;;;11.50;;
13263;SDS011;6700;51.988;7.646;2023-11-21T16:41:45;10.63;;;8.73;;
13263;SDS011;6700;51.988;7.646;2023-11-21T16:44:19;10.97;;;9.00;;
13263;SDS011;6700;51.988;7.646;2023-11-21T16:46:50;15.13;;;10.67;;
13263;SDS011;6700;51.988;7.646;2023-11-21T16:49:23;10.60;;;8.17;;
13263;SDS011;6700;51.988;7.646;2023-11-21T16:51:52;10.07;;;7.87;;
13263;SDS011;6700;51.988;7.646;2023-11-21T16:54:20;8.30;;;6.67;;
13263;SDS011;6700;51.988;7.646;2023-11-21T16:56:47;10.77;;;7.73;;
13263;SDS011;6700;51.988;7.646;2023-11-21T16:59:15;9.67;;;7.30;;
13263;SDS011;6700;51.988;7.646;2023-11-21T17:01:42;9.47;;;8.00;;
13263;SDS011;6700;51.988;7.646;2023-11-21T17:04:11;8.77;;;6.63;;
13263;SDS011;6700;51.988;7.646;2023-11-21T17:06:41;8.23;;;7.37;;
13263;SDS011;6700;51.988;7.646;2023-11-21T17:09:08;9.43;;;7.20;;
13263;SDS011;6700;51.988;7.646;2023-11-21T17:11:47;8.37;;;7.53;;
13263;SDS011;6700;51.988;7.646;2023-11-21T17:14:15;9.10;;;6.97;;
13263;SDS011;6700;51.988;7.646;2023-11-21T17:16:42;10.97;;;7.57;;
13263;SDS011;6700;51.988;7.646;2023-11-21T17:19:10;11.30;;;8.07;;
13263;SDS011;6700;51.988;7.646;2023-11-21T17:21:37;9.40;;;8.13;;
13263;SDS011;6700;51.988;7.646;2023-11-21T17:24:05;8.80;;;6.70;;
13263;SDS011;6700;51.988;7.646;2023-11-21T17:26:35;9.90;;;7.40;;
13263;SDS011;6700;51.988;7.646;2023-11-21T17:29:02;8.23;;;6.80;;
13263;SDS011;6700;51.988;7.646;2023-11-21T17:31:30;7.97;;;7.17;;
13263;SDS011;6700;51.988;7.646;2023-11-21T17:33:57;10.57;;;8.33;;
13263;SDS011;6700;51.988;7.646;2023-11-21T17:36:24;8.63;;;7.73;;
13263;SDS011;6700;51.988;7.646;2023-11-21T17:38:51;10.80;;;8.23;;
13263;SDS011;6700;51.988;7.646;2023-11-21T17:41:20;8.60;;;7.50;;
13263;SDS011;6700;51.988;7.646;2023-11-21T17:43:49;8.90;;;7.87;;
13263;SDS011;6700;51.988;7.646;2023-11-21T17:46:23;10.63;;;8.43;;
13263;SDS011;6700;51.988;7.646;2023-11-21T17:48:50;8.30;;;7.40;;
13263;SDS011;6700;51.988;7.646;2023-11-21T17:51:20;8.93;;;6.90;;
13263;SDS011;6700;51.988;7.646;2023-11-21T17:53:48;11.13;;;8.33;;
13263;SDS011;6700;51.988;7.646;2023-11-21T17:56:16;18.07;;;9.30;;
13263;SDS011;6700;51.988;7.646;2023-11-21T17:58:44;16.77;;;14.17;;
13263;SDS011;6700;51.988;7.646;2023-11-21T18:01:11;13.33;;;9.57;;
13263;SDS011;6700;51.988;7.646;2023-11-21T18:03:39;11.00;;;9.07;;
13263;SDS011;6700;51.988;7.646;2023-11-21T18:06:06;13.43;;;9.90;;
13263;SDS011;6700;51.988;7.646;2023-11-21T18:08:33;12.67;;;9.27;;
13263;SDS011;6700;51.988;7.646;2023-11-21T18:11:02;11.40;;;9.03;;
13263;SDS011;6700;51.988;7.646;2023-11-21T18:13:31;9.17;;;8.17;;
13263;SDS011;6700;51.988;7.646;2023-11-21T18:15:58;11.20;;;9.10;;
13263;SDS011;6700;51.988;7.646;2023-11-21T18:18:25;12.60;;;9.40;;
13263;SDS011;6700;51.988;7.646;2023-11-21T18:20:53;11.53;;;10.30;;
13263;SDS011;6700;51.988;7.646;2023-11-21T18:23:20;10.20;;;8.90;;
13263;SDS011;6700;51.988;7.646;2023-11-21T18:25:48;10.73;;;9.07;;
13263;SDS011;6700;51.988;7.646;2023-11-21T18:28:15;10.27;;;8.67;;
13263;SDS011;6700;51.988;7.646;2023-11-21T18:30:43;13.70;;;9.00;;
13263;SDS011;6700;51.988;7.646;2023-11-21T18:33:10;10.17;;;9.13;;
13263;SDS011;6700;51.988;7.646;2023-11-21T18:35:38;10.67;;;9.33;;
13263;SDS011;6700;51.988;7.646;2023-11-21T18:38:05;13.83;;;10.67;;
13263;SDS011;6700;51.988;7.646;2023-11-21T18:40:33;11.40;;;9.47;;
13263;SDS011;6700;51.988;7.646;2023-11-21T18:43:00;11.23;;;9.40;;
13263;SDS011;6700;51.988;7.646;2023-11-21T18:45:27;11.67;;;9.20;;
13263;SDS011;6700;51.988;7.646;2023-11-21T18:47:55;11.70;;;10.17;;
13263;SDS011;6700;51.988;7.646;2023-11-21T18:50:22;14.30;;;10.13;;
13263;SDS011;6700;51.988;7.646;2023-11-21T18:52:50;12.67;;;10.63;;
13263;SDS011;6700;51.988;7.646;2023-11-21T18:55:17;12.87;;;11.47;;
13263;SDS011;6700;51.988;7.646;2023-11-21T18:57:44;14.77;;;10.70;;
13263;SDS011;6700;51.988;7.646;2023-11-21T19:00:13;13.33;;;11.03;;
13263;SDS011;6700;51.988;7.646;2023-11-21T19:02:42;11.10;;;9.57;;
13263;SDS011;6700;51.988;7.646;2023-11-21T19:05:10;11.37;;;10.17;;
13263;SDS011;6700;51.988;7.646;2023-11-21T19:07:38;15.87;;;10.70;;
13263;SDS011;6700;51.988;7.646;2023-11-21T19:10:05;13.67;;;9.70;;
13263;SDS011;6700;51.988;7.646;2023-11-21T19:12:33;12.90;;;9.93;;
13263;SDS011;6700;51.988;7.646;2023-11-21T19:15:05;10.87;;;8.93;;
13263;SDS011;6700;51.988;7.646;2023-11-21T19:17:35;12.43;;;10.27;;
13263;SDS011;6700;51.988;7.646;2023-11-21T19:20:05;12.53;;;9.93;;
13263;SDS011;6700;51.988;7.646;2023-11-21T19:22:34;13.23;;;9.63;;
13263;SDS011;6700;51.988;7.646;2023-11-21T19:25:03;14.57;;;10.20;;
13263;SDS011;6700;51.988;7.646;2023-11-21T19:27:31;11.63;;;9.30;;
13263;SDS011;6700;51.988;7.646;2023-11-21T19:29:58;12.40;;;9.33;;
13263;SDS011;6700;51.988;7.646;2023-11-21T19:32:27;14.07;;;9.57;;
13263;SDS011;6700;51.988;7.646;2023-11-21T19:34:54;16.77;;;11.23;;
13263;SDS011;6700;51.988;7.646;2023-11-21T19:37:22;11.20;;;9.10;;
13263;SDS011;6700;51.988;7.646;2023-11-21T19:39:49;10.57;;;9.40;;
13263;SDS011;6700;51.988;7.646;2023-11-21T19:42:17;10.90;;;9.30;;
13263;SDS011;6700;51.988;7.646;2023-11-21T19:44:44;12.90;;;9.70;;
13263;SDS011;6700;51.988;7.646;2023-11-21T19:47:11;14.93;;;9.93;;
13263;SDS011;6700;51.988;7.646;2023-11-21T19:49:39;15.87;;;9.40;;
13263;SDS011;6700;51.988;7.646;2023-11-21T19:52:07;11.10;;;9.53;;
13263;SDS011;6700;51.988;7.646;2023-11-21T19:54:34;16.37;;;10.33;;
13263;SDS011;6700;51.988;7.646;2023-11-21T19:57:01;15.27;;;11.07;;
13263;SDS011;6700;51.988;7.646;2023-11-21T19:59:30;13.27;;;10.17;;
13263;SDS011;6700;51.988;7.646;2023-11-21T20:01:58;14.93;;;12.57;;
13263;SDS011;6700;51.988;7.646;2023-11-21T20:04:25;11.47;;;10.27;;
13263;SDS011;6700;51.988;7.646;2023-11-21T20:06:52;13.40;;;11.00;;
13263;SDS011;6700;51.988;7.646;2023-11-21T20:09:21;16.30;;;11.07;;
13263;SDS011;6700;51.988;7.646;2023-11-21T20:11:48;11.23;;;10.00;;
13263;SDS011;6700;51.988;7.646;2023-11-21T20:14:17;12.00;;;10.27;;
13263;SDS011;6700;51.988;7.646;2023-11-21T20:16:44;13.07;;;10.93;;
13263;SDS011;6700;51.988;7.646;2023-11-21T20:19:13;11.43;;;9.80;;
13263;SDS011;6700;51.988;7.646;2023-11-21T20:21:41;13.80;;;10.73;;
13263;SDS011;6700;51.988;7.646;2023-11-21T20:24:09;13.03;;;9.77;;
13263;SDS011;6700;51.988;7.646;2023-11-21T20:26:39;10.80;;;9.23;;
13263;SDS011;6700;51.988;7.646;2023-11-21T20:29:08;13.50;;;10.67;;
13263;SDS011;6700;51.988;7.646;2023-11-21T20:31:35;13.23;;;11.20;;
13263;SDS011;6700;51.988;7.646;2023-11-21T20:34:03;11.33;;;9.83;;
13263;SDS011;6700;51.988;7.646;2023-11-21T20:36:31;14.80;;;11.83;;
13263;SDS011;6700;51.988;7.646;2023-11-21T20:38:58;18.67;;;11.87;;
13263;SDS011;6700;51.988;7.646;2023-11-21T20:41:25;11.57;;;10.30;;
13263;SDS011;6700;51.988;7.646;2023-11-21T20:43:54;13.30;;;10.33;;
13263;SDS011;6700;51.988;7.646;2023-11-21T20:46:22;11.97;;;8.77;;
13263;SDS011;6700;51.988;7.646;2023-11-21T20:48:49;12.23;;;10.03;;
13263;SDS011;6700;51.988;7.646;2023-11-21T20:51:20;12.60;;;9.93;;
13263;SDS011;6700;51.988;7.646;2023-11-21T20:53:48;11.13;;;8.83;;
13263;SDS011;6700;51.988;7.646;2023-11-21T20:56:15;9.43;;;7.67;;
13263;SDS011;6700;51.988;7.646;2023-11-21T20:58:44;10.37;;;8.33;;
13263;SDS011;6700;51.988;7.646;2023-11-21T21:01:12;9.27;;;7.63;;
13263;SDS011;6700;51.988;7.646;2023-11-21T21:03:40;8.23;;;7.43;;
13263;SDS011;6700;51.988;7.646;2023-11-21T21:06:07;8.07;;;7.07;;
13263;SDS011;6700;51.988;7.646;2023-11-21T21:08:34;7.07;;;6.33;;
13263;SDS011;6700;51.988;7.646;2023-11-21T21:11:01;6.87;;;5.93;;
13263;SDS011;6700;51.988;7.646;2023-11-21T21:13:29;7.95;;;6.38;;
13263;SDS011;6700;51.988;7.646;2023-11-21T21:15:56;8.00;;;5.57;;
13263;SDS011;6700;51.988;7.646;2023-11-21T21:18:23;6.80;;;5.17;;
13263;SDS011;6700;51.988;7.646;2023-11-21T21:20:53;6.40;;;5.50;;
13263;SDS011;6700;51.988;7.646;2023-11-21T21:23:21;6.40;;;5.33;;
13263;SDS011;6700;51.988;7.646;2023-11-21T21:25:48;7.17;;;5.60;;
13263;SDS011;6700;51.988;7.646;2023-11-21T21:28:18;7.43;;;5.17;;
13263;SDS011;6700;51.988;7.646;2023-11-21T21:30:46;5.10;;;4.60;;
13263;SDS011;6700;51.988;7.646;2023-11-21T21:33:13;7.97;;;5.17;;
13263;SDS011;6700;51.988;7.646;2023-11-21T21:35:40;6.40;;;5.70;;
13263;SDS011;6700;51.988;7.646;2023-11-21T21:38:08;7.13;;;6.03;;
13263;SDS011;6700;51.988;7.646;2023-11-21T21:40:35;6.83;;;5.80;;
13263;SDS011;6700;51.988;7.646;2023-11-21T21:43:03;6.20;;;5.43;;
13263;SDS011;6700;51.988;7.646;2023-11-21T21:45:30;6.70;;;5.67;;
13263;SDS011;6700;51.988;7.646;2023-11-21T21:47:58;7.77;;;6.70;;
13263;SDS011;6700;51.988;7.646;2023-11-21T21:50:25;6.03;;;5.47;;
13263;SDS011;6700;51.988;7.646;2023-11-21T21:52:55;7.63;;;6.07;;
13263;SDS011;6700;51.988;7.646;2023-11-21T21:55:25;8.93;;;6.67;;
13263;SDS011;6700;51.988;7.646;2023-11-21T21:57:56;7.03;;;6.10;;
13263;SDS011;6700;51.988;7.646;2023-11-21T22:00:23;7.20;;;6.47;;